Piercefield, New York
Current Conditions -  °F | °C
As of 2:02 AM on Friday 28 Nov 2014 (Local Time) from KSLK Reporting Station
Light Snow Light Snow  
Wind Chill: 21°   Ceiling: 2200
Heat Index: 21°   Visibility: 4mi
Dew Point: 18°   Wind: 0mph
Humidity: 88%   Direction: NA
Pressure: 29.94"   Gusts: NA
Location:  44.23°N, 74.57°W
Report Text: KSLK 280702Z AUTO 00000KT 4SM -SN BR SCT011 BKN022 OVC049 M06/M08 A2994 RMK AO2 P0000 T10611078 $
Loading
Personal Weather Stations






























Interactive Weather Map New forecast layout! Learn more

10-Day Weather Forecast

Advertisements
Track Severe Weather on mobile